createdAt,value
2022-08-22T00:00:00.206Z,16.7
2022-08-22T00:02:56.362Z,20.1
2022-08-22T00:05:00.163Z,16.7
2022-08-22T00:10:00.202Z,16.7
2022-08-22T00:15:00.168Z,16.7
2022-08-22T00:20:00.183Z,16.7
2022-08-22T00:25:00.191Z,16.7
2022-08-22T00:30:00.209Z,16.6
2022-08-22T00:35:00.179Z,16.7
2022-08-22T00:40:00.273Z,16.6
2022-08-22T00:45:00.164Z,16.5
2022-08-22T00:50:00.191Z,16.5
2022-08-22T00:55:00.176Z,16.5
2022-08-22T01:00:00.196Z,16.5
2022-08-22T01:05:00.149Z,16.4
2022-08-22T01:10:00.188Z,16.5
2022-08-22T01:15:00.175Z,16.5
2022-08-22T01:20:00.156Z,16.5
2022-08-22T01:25:00.182Z,16.5
2022-08-22T01:30:00.186Z,16.6
2022-08-22T01:35:00.188Z,16.6
2022-08-22T01:40:00.306Z,16.6
2022-08-22T01:45:00.149Z,16.6
2022-08-22T01:50:00.194Z,16.6
2022-08-22T01:55:00.163Z,16.5
2022-08-22T02:00:00.209Z,16.5
2022-08-22T02:05:00.157Z,16.5
2022-08-22T02:10:00.191Z,16.5
2022-08-22T02:15:00.181Z,16.4
2022-08-22T02:20:00.194Z,16.4
2022-08-22T02:25:00.212Z,16.3
2022-08-22T02:30:00.193Z,16.3
2022-08-22T02:35:00.171Z,16.2
2022-08-22T02:40:00.316Z,16.1
2022-08-22T02:45:00.155Z,16.2
2022-08-22T02:50:00.170Z,16.2
2022-08-22T02:55:00.169Z,16.2
2022-08-22T03:00:00.255Z,16.1
2022-08-22T03:05:00.172Z,16.1
2022-08-22T03:10:00.164Z,16.1
2022-08-22T03:15:00.178Z,16.1
2022-08-22T03:20:00.184Z,16.1
2022-08-22T03:25:00.165Z,16.1
2022-08-22T03:30:00.200Z,16.1
2022-08-22T03:35:00.184Z,16.0
2022-08-22T03:40:00.333Z,16.0
2022-08-22T03:45:00.193Z,16.0
2022-08-22T03:50:00.199Z,16.0
2022-08-22T03:55:00.200Z,16.0
2022-08-22T04:00:00.223Z,16.0
2022-08-22T04:05:00.176Z,16.0
2022-08-22T04:10:00.193Z,16.0
2022-08-22T04:15:00.197Z,16.0
2022-08-22T04:20:00.183Z,16.0
2022-08-22T04:25:02.628Z,16.0
2022-08-22T04:30:00.183Z,16.0
2022-08-22T04:35:00.172Z,16.0
2022-08-22T04:40:00.314Z,16.0
2022-08-22T04:45:00.177Z,16.0
2022-08-22T04:50:00.172Z,16.1
2022-08-22T04:55:00.182Z,16.0
2022-08-22T05:00:00.221Z,16.0
2022-08-22T05:05:00.182Z,16.0
2022-08-22T05:10:00.200Z,16.0
2022-08-22T05:15:00.180Z,16.0
2022-08-22T05:20:00.225Z,16.0
2022-08-22T05:25:00.194Z,16.0
2022-08-22T05:30:00.299Z,16.1
2022-08-22T05:35:00.189Z,16.1
2022-08-22T05:40:00.349Z,16.2
2022-08-22T05:45:00.226Z,16.2
2022-08-22T05:50:00.212Z,16.2
2022-08-22T05:55:00.205Z,16.2
2022-08-22T06:00:00.244Z,16.2
2022-08-22T06:05:00.200Z,16.2
2022-08-22T06:10:00.181Z,16.2
2022-08-22T06:15:00.205Z,16.3
2022-08-22T06:20:00.186Z,16.4
2022-08-22T06:25:00.177Z,16.5
2022-08-22T06:30:00.199Z,16.6
2022-08-22T06:35:00.181Z,16.6
2022-08-22T06:40:00.299Z,16.7
2022-08-22T06:45:00.206Z,16.7
2022-08-22T06:50:00.208Z,16.8
2022-08-22T06:55:00.191Z,17.0
2022-08-22T07:00:00.219Z,17.3
2022-08-22T07:05:00.181Z,17.5
2022-08-22T07:10:00.165Z,17.7
2022-08-22T07:15:00.204Z,18.5
2022-08-22T07:20:00.179Z,18.6
2022-08-22T07:25:00.206Z,18.9
2022-08-22T07:30:00.192Z,19.0
2022-08-22T07:35:00.179Z,19.2
2022-08-22T07:40:00.322Z,19.2
2022-08-22T07:45:00.192Z,19.2
2022-08-22T07:50:00.194Z,19.4
2022-08-22T07:55:00.185Z,19.6
2022-08-22T08:00:00.238Z,20.0
2022-08-22T08:05:00.207Z,20.1
2022-08-22T08:10:00.206Z,20.2
2022-08-22T08:15:00.197Z,20.5
2022-08-22T08:20:00.188Z,21.3
2022-08-22T08:25:00.195Z,21.4
2022-08-22T08:30:00.198Z,21.4
2022-08-22T08:35:00.190Z,22.0
2022-08-22T08:40:00.322Z,22.2
2022-08-22T08:45:00.218Z,22.2
2022-08-22T08:50:00.205Z,22.5
2022-08-22T08:55:00.232Z,22.6
2022-08-22T09:00:00.223Z,23.0
2022-08-22T09:05:00.196Z,22.9
2022-08-22T09:10:00.197Z,23.3
2022-08-22T09:15:00.203Z,23.2
2022-08-22T09:20:00.186Z,23.3
2022-08-22T09:25:00.180Z,23.1
2022-08-22T09:30:00.208Z,23.2
2022-08-22T09:35:00.212Z,23.5
2022-08-22T09:40:00.322Z,23.6
2022-08-22T09:45:00.191Z,23.6
2022-08-22T09:50:00.175Z,23.5
2022-08-22T09:55:00.191Z,23.5
2022-08-22T10:00:00.220Z,23.6
2022-08-22T10:05:00.191Z,23.6
2022-08-22T10:10:00.842Z,23.7
2022-08-22T10:15:00.186Z,24.5
2022-08-22T10:20:00.206Z,24.7
2022-08-22T10:25:00.179Z,24.8
2022-08-22T10:30:00.193Z,25.0
2022-08-22T10:35:00.185Z,25.1
2022-08-22T10:40:00.331Z,25.7
2022-08-22T10:45:00.206Z,26.2
2022-08-22T15:30:00.196Z,25.8
2022-08-22T15:35:00.186Z,25.9
2022-08-22T15:40:00.286Z,26.7
2022-08-22T15:45:00.182Z,27.3
2022-08-22T15:50:00.202Z,27.8
2022-08-22T15:55:00.165Z,28.1
2022-08-22T16:00:00.214Z,27.5
2022-08-22T16:05:00.188Z,27.9
2022-08-22T16:10:00.167Z,28.2
2022-08-22T16:15:00.187Z,27.0
2022-08-22T16:20:00.317Z,26.8
2022-08-22T16:25:00.150Z,26.7
2022-08-22T16:30:00.220Z,26.8
2022-08-22T16:35:00.165Z,26.2
2022-08-22T16:40:00.296Z,26.8
2022-08-22T16:45:00.159Z,26.9
2022-08-22T16:50:00.212Z,26.8
2022-08-22T16:55:00.151Z,27.0
2022-08-22T17:00:00.209Z,26.0
2022-08-22T17:05:00.196Z,26.6
2022-08-22T17:10:00.213Z,26.7
2022-08-22T17:15:00.184Z,26.2
2022-08-22T17:20:00.200Z,26.0
2022-08-22T17:25:00.189Z,26.1
2022-08-22T17:30:00.206Z,26.0
2022-08-22T17:35:00.209Z,25.5
2022-08-22T17:40:00.552Z,25.1
2022-08-22T17:45:00.174Z,24.7
2022-08-22T17:50:00.207Z,24.5
2022-08-22T17:55:00.187Z,24.3
2022-08-22T18:00:00.217Z,24.3
2022-08-22T18:05:00.188Z,24.1
2022-08-22T18:10:00.203Z,24.1
2022-08-22T18:15:00.203Z,24.0
2022-08-22T18:20:00.194Z,23.8
2022-08-22T18:25:00.208Z,23.7
2022-08-22T18:30:00.188Z,23.6
2022-08-22T18:35:01.226Z,23.6
2022-08-22T18:40:00.304Z,23.5
2022-08-22T18:45:00.215Z,23.5
2022-08-22T18:50:00.207Z,23.4
2022-08-22T18:55:00.185Z,23.3
2022-08-22T19:00:00.244Z,23.1
2022-08-22T19:05:00.192Z,22.9
2022-08-22T19:10:00.199Z,22.7
2022-08-22T19:15:00.189Z,22.4
2022-08-22T19:20:00.201Z,22.2
2022-08-22T19:25:00.188Z,22.1
2022-08-22T19:30:00.202Z,21.9
2022-08-22T19:35:02.086Z,21.7
2022-08-22T19:40:00.334Z,21.5
2022-08-22T19:45:00.195Z,21.4
2022-08-22T19:50:00.178Z,21.2
2022-08-22T19:55:00.202Z,21.1
2022-08-22T20:00:00.407Z,21.0
2022-08-22T20:05:00.193Z,20.8
2022-08-22T20:10:00.204Z,20.6
2022-08-22T20:15:00.196Z,20.6
2022-08-22T20:20:19.182Z,20.6
2022-08-22T20:25:00.215Z,20.5
2022-08-22T20:30:00.210Z,20.5
2022-08-22T20:35:00.198Z,20.4
2022-08-22T20:40:00.307Z,20.3
2022-08-22T20:45:00.182Z,20.2
2022-08-22T20:50:00.184Z,20.1
2022-08-22T20:55:00.159Z,20.0
2022-08-22T21:00:00.236Z,19.8
2022-08-22T21:05:00.178Z,19.6
2022-08-22T21:10:00.201Z,19.5
2022-08-22T21:15:00.169Z,19.2
2022-08-22T21:20:00.172Z,19.2
2022-08-22T21:25:00.187Z,19.1
2022-08-22T21:30:00.195Z,19.0
2022-08-22T21:35:00.212Z,18.8
2022-08-22T21:40:00.258Z,18.7
2022-08-22T21:45:00.173Z,18.6
2022-08-22T21:50:00.174Z,18.6
2022-08-22T21:55:00.172Z,18.7
2022-08-22T22:00:00.363Z,18.8
2022-08-22T22:05:00.169Z,18.8
2022-08-22T22:10:00.224Z,18.6
2022-08-22T22:15:00.170Z,18.4
2022-08-22T22:20:00.166Z,18.2
2022-08-22T22:25:00.179Z,18.0
2022-08-22T22:30:00.195Z,17.8
2022-08-22T22:35:00.183Z,17.8
2022-08-22T22:40:00.276Z,17.8
2022-08-22T22:45:00.166Z,17.8
2022-08-22T22:50:00.169Z,17.8
2022-08-22T22:55:00.180Z,17.6
2022-08-22T23:00:00.198Z,17.5
2022-08-22T23:05:00.172Z,17.4
2022-08-22T23:10:00.168Z,17.4
2022-08-22T23:15:00.183Z,17.2
2022-08-22T23:20:00.181Z,17.1
2022-08-22T23:25:00.149Z,17.0
2022-08-22T23:30:00.196Z,16.9
2022-08-22T23:35:00.150Z,16.8
2022-08-22T23:40:00.322Z,17.0
2022-08-22T23:45:00.184Z,17.1
2022-08-22T23:50:05.790Z,16.9
2022-08-22T23:55:00.198Z,16.8
